sensor_id;sensor_type;location;lat;lon;timestamp;temperature;humidity
13205;DHT22;6667;52.634;9.226;2022-10-13T04:20:48;8.40;99.90
13205;DHT22;6667;52.634;9.226;2022-10-13T04:23:15;8.40;99.90
13205;DHT22;6667;52.634;9.226;2022-10-13T04:25:42;8.50;99.90
13205;DHT22;6667;52.634;9.226;2022-10-13T04:28:10;8.50;99.90
13205;DHT22;6667;52.634;9.226;2022-10-13T04:30:37;8.40;99.90
13205;DHT22;6667;52.634;9.226;2022-10-13T04:33:04;8.40;99.90
13205;DHT22;6667;52.634;9.226;2022-10-13T04:35:31;8.40;99.90
13205;DHT22;6667;52.634;9.226;2022-10-13T04:37:59;8.40;99.90
13205;DHT22;6667;52.634;9.226;2022-10-13T04:40:26;8.40;99.90
13205;DHT22;6667;52.634;9.226;2022-10-13T04:42:53;8.40;99.90
13205;DHT22;6667;52.634;9.226;2022-10-13T04:45:20;8.50;99.90
13205;DHT22;6667;52.634;9.226;2022-10-13T04:47:46;8.50;99.90
13205;DHT22;6667;52.634;9.226;2022-10-13T04:50:13;8.60;99.90
13205;DHT22;6667;52.634;9.226;2022-10-13T04:52:40;8.50;99.90
13205;DHT22;6667;52.634;9.226;2022-10-13T04:55:08;8.50;99.90
13205;DHT22;6667;52.634;9.226;2022-10-13T04:57:35;8.50;99.90
13205;DHT22;6667;52.634;9.226;2022-10-13T05:00:03;8.50;99.90
13205;DHT22;6667;52.634;9.226;2022-10-13T05:02:33;8.30;99.90
13205;DHT22;6667;52.634;9.226;2022-10-13T05:04:59;8.50;99.90
13205;DHT22;6667;52.634;9.226;2022-10-13T05:07:26;8.50;99.90
13205;DHT22;6667;52.634;9.226;2022-10-13T05:09:53;8.60;99.90
13205;DHT22;6667;52.634;9.226;2022-10-13T05:12:21;8.60;99.90
13205;DHT22;6667;52.634;9.226;2022-10-13T05:14:47;8.50;99.90
13205;DHT22;6667;52.634;9.226;2022-10-13T05:17:14;8.50;99.90
13205;DHT22;6667;52.634;9.226;2022-10-13T05:19:41;8.50;99.90
13205;DHT22;6667;52.634;9.226;2022-10-13T05:22:07;8.60;99.90
13205;DHT22;6667;52.634;9.226;2022-10-13T05:24:34;8.70;99.90
13205;DHT22;6667;52.634;9.226;2022-10-13T05:27:08;8.60;99.90
13205;DHT22;6667;52.634;9.226;2022-10-13T05:29:37;8.70;99.90
13205;DHT22;6667;52.634;9.226;2022-10-13T05:32:04;8.70;99.90
13205;DHT22;6667;52.634;9.226;2022-10-13T05:34:32;8.70;99.90
13205;DHT22;6667;52.634;9.226;2022-10-13T05:36:59;8.70;99.90
13205;DHT22;6667;52.634;9.226;2022-10-13T05:39:26;8.80;99.90
13205;DHT22;6667;52.634;9.226;2022-10-13T05:41:53;8.90;99.90
13205;DHT22;6667;52.634;9.226;2022-10-13T05:44:20;8.90;99.90
13205;DHT22;6667;52.634;9.226;2022-10-13T05:46:48;8.90;99.90
13205;DHT22;6667;52.634;9.226;2022-10-13T05:49:15;9.10;99.90
13205;DHT22;6667;52.634;9.226;2022-10-13T05:51:43;9.10;99.90
13205;DHT22;6667;52.634;9.226;2022-10-13T05:54:13;9.20;99.90
13205;DHT22;6667;52.634;9.226;2022-10-13T05:56:42;9.10;99.90
13205;DHT22;6667;52.634;9.226;2022-10-13T05:59:13;9.10;99.90
13205;DHT22;6667;52.634;9.226;2022-10-13T06:01:40;9.20;99.90
13205;DHT22;6667;52.634;9.226;2022-10-13T06:04:12;9.20;99.90
13205;DHT22;6667;52.634;9.226;2022-10-13T06:06:39;9.20;99.90
13205;DHT22;6667;52.634;9.226;2022-10-13T06:09:06;9.30;99.90
13205;DHT22;6667;52.634;9.226;2022-10-13T06:11:33;9.30;99.90
13205;DHT22;6667;52.634;9.226;2022-10-13T06:14:00;9.30;99.90
13205;DHT22;6667;52.634;9.226;2022-10-13T06:16:26;9.40;99.90
13205;DHT22;6667;52.634;9.226;2022-10-13T06:18:53;9.40;99.90
13205;DHT22;6667;52.634;9.226;2022-10-13T06:21:21;9.40;99.90
13205;DHT22;6667;52.634;9.226;2022-10-13T06:23:48;9.50;99.90
13205;DHT22;6667;52.634;9.226;2022-10-13T06:26:15;9.50;99.90
13205;DHT22;6667;52.634;9.226;2022-10-13T06:28:42;9.50;99.90
13205;DHT22;6667;52.634;9.226;2022-10-13T06:31:08;9.60;99.90
13205;DHT22;6667;52.634;9.226;2022-10-13T06:33:35;9.60;99.90
13205;DHT22;6667;52.634;9.226;2022-10-13T06:36:02;9.60;99.90
13205;DHT22;6667;52.634;9.226;2022-10-13T06:38:32;9.70;99.90
13205;DHT22;6667;52.634;9.226;2022-10-13T06:40:59;9.70;99.90
13205;DHT22;6667;52.634;9.226;2022-10-13T06:43:26;9.80;99.90
13205;DHT22;6667;52.634;9.226;2022-10-13T06:45:56;9.80;99.90
13205;DHT22;6667;52.634;9.226;2022-10-13T06:48:22;9.80;99.90
13205;DHT22;6667;52.634;9.226;2022-10-13T06:50:49;9.90;99.90
13205;DHT22;6667;52.634;9.226;2022-10-13T06:53:16;10.00;99.90
13205;DHT22;6667;52.634;9.226;2022-10-13T06:55:44;10.10;99.90
13205;DHT22;6667;52.634;9.226;2022-10-13T06:58:11;10.20;99.90
13205;DHT22;6667;52.634;9.226;2022-10-13T07:00:40;10.20;99.90
13205;DHT22;6667;52.634;9.226;2022-10-13T07:03:07;10.20;99.90
13205;DHT22;6667;52.634;9.226;2022-10-13T07:05:33;10.30;99.90
13205;DHT22;6667;52.634;9.226;2022-10-13T07:08:00;10.40;99.90
13205;DHT22;6667;52.634;9.226;2022-10-13T07:10:27;10.40;99.90
13205;DHT22;6667;52.634;9.226;2022-10-13T07:12:55;10.50;99.90
13205;DHT22;6667;52.634;9.226;2022-10-13T07:15:22;10.60;99.90
13205;DHT22;6667;52.634;9.226;2022-10-13T07:17:49;10.70;99.90
13205;DHT22;6667;52.634;9.226;2022-10-13T07:20:18;10.80;99.90
13205;DHT22;6667;52.634;9.226;2022-10-13T07:22:44;10.90;99.90
13205;DHT22;6667;52.634;9.226;2022-10-13T07:25:11;11.00;99.90
13205;DHT22;6667;52.634;9.226;2022-10-13T07:27:38;11.10;99.90
13205;DHT22;6667;52.634;9.226;2022-10-13T07:30:07;11.20;99.90
13205;DHT22;6667;52.634;9.226;2022-10-13T07:32:34;11.30;99.90
13205;DHT22;6667;52.634;9.226;2022-10-13T07:35:02;11.30;99.90
13205;DHT22;6667;52.634;9.226;2022-10-13T07:37:28;11.40;99.90
13205;DHT22;6667;52.634;9.226;2022-10-13T07:39:55;11.50;99.90
13205;DHT22;6667;52.634;9.226;2022-10-13T07:42:24;11.60;99.90
13205;DHT22;6667;52.634;9.226;2022-10-13T07:44:51;11.70;99.90
13205;DHT22;6667;52.634;9.226;2022-10-13T07:47:19;11.80;99.90
13205;DHT22;6667;52.634;9.226;2022-10-13T07:49:46;12.00;99.90
13205;DHT22;6667;52.634;9.226;2022-10-13T07:52:12;12.00;99.90
13205;DHT22;6667;52.634;9.226;2022-10-13T07:54:39;12.10;99.90
13205;DHT22;6667;52.634;9.226;2022-10-13T07:57:06;12.00;99.90
13205;DHT22;6667;52.634;9.226;2022-10-13T07:59:33;12.00;99.90
13205;DHT22;6667;52.634;9.226;2022-10-13T08:02:00;12.10;99.90
13205;DHT22;6667;52.634;9.226;2022-10-13T08:04:29;12.10;99.90
13205;DHT22;6667;52.634;9.226;2022-10-13T08:06:56;12.20;99.90
13205;DHT22;6667;52.634;9.226;2022-10-13T08:09:23;12.20;99.90
13205;DHT22;6667;52.634;9.226;2022-10-13T08:11:50;12.20;99.90
13205;DHT22;6667;52.634;9.226;2022-10-13T08:14:17;12.30;99.90
13205;DHT22;6667;52.634;9.226;2022-10-13T08:16:44;12.40;99.90
13205;DHT22;6667;52.634;9.226;2022-10-13T08:19:11;12.50;99.90
13205;DHT22;6667;52.634;9.226;2022-10-13T08:21:40;12.70;99.90
13205;DHT22;6667;52.634;9.226;2022-10-13T08:24:10;12.80;99.90
13205;DHT22;6667;52.634;9.226;2022-10-13T08:26:37;12.90;99.90
13205;DHT22;6667;52.634;9.226;2022-10-13T08:29:04;13.20;99.90
13205;DHT22;6667;52.634;9.226;2022-10-13T08:31:31;13.50;99.90
13205;DHT22;6667;52.634;9.226;2022-10-13T08:33:58;13.70;99.90
13205;DHT22;6667;52.634;9.226;2022-10-13T08:36:25;14.00;99.90
13205;DHT22;6667;52.634;9.226;2022-10-13T08:38:53;14.20;99.90
13205;DHT22;6667;52.634;9.226;2022-10-13T08:41:23;14.30;99.90
13205;DHT22;6667;52.634;9.226;2022-10-13T08:43:52;14.60;99.90
13205;DHT22;6667;52.634;9.226;2022-10-13T08:46:24;14.90;99.90
13205;DHT22;6667;52.634;9.226;2022-10-13T08:48:51;15.30;99.90
13205;DHT22;6667;52.634;9.226;2022-10-13T08:51:18;15.30;99.90
13205;DHT22;6667;52.634;9.226;2022-10-13T08:53:45;15.30;99.90
13205;DHT22;6667;52.634;9.226;2022-10-13T08:56:17;15.40;99.90
13205;DHT22;6667;52.634;9.226;2022-10-13T08:58:46;15.30;99.90
13205;DHT22;6667;52.634;9.226;2022-10-13T09:01:15;15.50;99.90
13205;DHT22;6667;52.634;9.226;2022-10-13T09:03:51;15.70;99.90
13205;DHT22;6667;52.634;9.226;2022-10-13T09:06:21;15.90;99.90
13205;DHT22;6667;52.634;9.226;2022-10-13T09:08:55;16.00;99.90
13205;DHT22;6667;52.634;9.226;2022-10-13T09:11:26;16.00;99.90
13205;DHT22;6667;52.634;9.226;2022-10-13T09:13:55;16.10;99.90
13205;DHT22;6667;52.634;9.226;2022-10-13T09:16:27;16.10;99.90
13205;DHT22;6667;52.634;9.226;2022-10-13T09:18:54;16.20;99.90
13205;DHT22;6667;52.634;9.226;2022-10-13T09:21:34;16.30;99.90
13205;DHT22;6667;52.634;9.226;2022-10-13T09:24:05;16.50;99.90
13205;DHT22;6667;52.634;9.226;2022-10-13T09:26:37;16.60;99.90
13205;DHT22;6667;52.634;9.226;2022-10-13T09:29:07;16.60;99.90
13205;DHT22;6667;52.634;9.226;2022-10-13T09:31:35;16.20;99.90
13205;DHT22;6667;52.634;9.226;2022-10-13T09:34:13;16.20;99.90
13205;DHT22;6667;52.634;9.226;2022-10-13T09:36:55;16.50;99.90
13205;DHT22;6667;52.634;9.226;2022-10-13T09:39:21;16.80;99.90
13205;DHT22;6667;52.634;9.226;2022-10-13T09:41:50;17.30;99.90
13205;DHT22;6667;52.634;9.226;2022-10-13T09:44:18;17.70;99.90
13205;DHT22;6667;52.634;9.226;2022-10-13T09:46:54;17.80;99.90
13205;DHT22;6667;52.634;9.226;2022-10-13T09:49:34;18.10;99.90
13205;DHT22;6667;52.634;9.226;2022-10-13T09:52:04;18.00;99.90
13205;DHT22;6667;52.634;9.226;2022-10-13T09:54:44;18.00;99.90
13205;DHT22;6667;52.634;9.226;2022-10-13T09:57:17;18.40;99.90
13205;DHT22;6667;52.634;9.226;2022-10-13T09:59:48;18.70;99.90
13205;DHT22;6667;52.634;9.226;2022-10-13T10:02:21;18.30;99.90
13205;DHT22;6667;52.634;9.226;2022-10-13T10:04:51;18.30;99.90
13205;DHT22;6667;52.634;9.226;2022-10-13T10:07:21;18.30;99.90
13205;DHT22;6667;52.634;9.226;2022-10-13T10:09:53;18.40;99.90
13205;DHT22;6667;52.634;9.226;2022-10-13T10:12:26;18.00;99.90
13205;DHT22;6667;52.634;9.226;2022-10-13T10:14:53;18.10;99.90
13205;DHT22;6667;52.634;9.226;2022-10-13T10:17:27;18.10;99.90
13205;DHT22;6667;52.634;9.226;2022-10-13T10:20:04;18.00;99.90
13205;DHT22;6667;52.634;9.226;2022-10-13T10:22:41;18.10;99.90
13205;DHT22;6667;52.634;9.226;2022-10-13T10:25:20;18.50;99.90
13205;DHT22;6667;52.634;9.226;2022-10-13T10:28:00;18.80;99.90
13205;DHT22;6667;52.634;9.226;2022-10-13T10:30:30;19.20;99.90
13205;DHT22;6667;52.634;9.226;2022-10-13T10:33:03;19.40;99.90
13205;DHT22;6667;52.634;9.226;2022-10-13T10:38:16;19.00;99.90
13205;DHT22;6667;52.634;9.226;2022-10-13T10:40:49;19.00;99.90
13205;DHT22;6667;52.634;9.226;2022-10-13T10:43:27;19.00;99.90
13205;DHT22;6667;52.634;9.226;2022-10-13T10:45:56;19.20;99.90
13205;DHT22;6667;52.634;9.226;2022-10-13T10:48:25;19.10;99.90
13205;DHT22;6667;52.634;9.226;2022-10-13T10:50:53;19.50;99.90
13205;DHT22;6667;52.634;9.226;2022-10-13T10:53:26;19.60;99.90
13205;DHT22;6667;52.634;9.226;2022-10-13T10:56:01;19.60;99.90
13205;DHT22;6667;52.634;9.226;2022-10-13T10:58:38;19.90;99.90
13205;DHT22;6667;52.634;9.226;2022-10-13T11:01:18;19.70;99.90
13205;DHT22;6667;52.634;9.226;2022-10-13T11:03:53;19.10;99.90
13205;DHT22;6667;52.634;9.226;2022-10-13T11:06:23;19.20;99.90
13205;DHT22;6667;52.634;9.226;2022-10-13T11:08:50;19.00;99.90
13205;DHT22;6667;52.634;9.226;2022-10-13T11:11:37;18.80;99.90
13205;DHT22;6667;52.634;9.226;2022-10-13T11:14:29;18.90;99.90
13205;DHT22;6667;52.634;9.226;2022-10-13T11:17:14;18.80;99.90
13205;DHT22;6667;52.634;9.226;2022-10-13T11:19:41;18.80;99.90
13205;DHT22;6667;52.634;9.226;2022-10-13T11:22:13;18.90;99.90
13205;DHT22;6667;52.634;9.226;2022-10-13T11:24:58;18.80;99.90
13205;DHT22;6667;52.634;9.226;2022-10-13T11:27:36;18.80;99.90
13205;DHT22;6667;52.634;9.226;2022-10-13T11:30:40;18.70;99.90
13205;DHT22;6667;52.634;9.226;2022-10-13T11:33:50;18.70;99.90
13205;DHT22;6667;52.634;9.226;2022-10-13T11:36:37;18.50;99.90
13205;DHT22;6667;52.634;9.226;2022-10-13T11:39:48;18.40;99.90
13205;DHT22;6667;52.634;9.226;2022-10-13T11:45:21;18.60;99.90
13205;DHT22;6667;52.634;9.226;2022-10-13T11:48:22;18.50;99.90
13205;DHT22;6667;52.634;9.226;2022-10-13T11:51:04;18.60;99.90
13205;DHT22;6667;52.634;9.226;2022-10-13T11:53:41;18.30;99.90
13205;DHT22;6667;52.634;9.226;2022-10-13T11:56:18;18.30;99.90
13205;DHT22;6667;52.634;9.226;2022-10-13T11:58:45;18.20;99.90
13205;DHT22;6667;52.634;9.226;2022-10-13T12:01:13;18.10;99.90
13205;DHT22;6667;52.634;9.226;2022-10-13T12:03:44;17.90;99.90
13205;DHT22;6667;52.634;9.226;2022-10-13T12:06:28;18.00;99.90
13205;DHT22;6667;52.634;9.226;2022-10-13T12:09:14;18.00;99.90
13205;DHT22;6667;52.634;9.226;2022-10-13T12:11:43;17.90;99.90
13205;DHT22;6667;52.634;9.226;2022-10-13T12:14:20;17.90;99.90
13205;DHT22;6667;52.634;9.226;2022-10-13T12:16:51;18.10;99.90
13205;DHT22;6667;52.634;9.226;2022-10-13T12:19:21;18.00;99.90
13205;DHT22;6667;52.634;9.226;2022-10-13T12:21:49;18.00;99.90
13205;DHT22;6667;52.634;9.226;2022-10-13T12:24:16;17.90;99.90
13205;DHT22;6667;52.634;9.226;2022-10-13T12:26:43;18.20;99.90
13205;DHT22;6667;52.634;9.226;2022-10-13T12:29:12;18.00;99.90
13205;DHT22;6667;52.634;9.226;2022-10-13T12:31:40;18.00;99.90
13205;DHT22;6667;52.634;9.226;2022-10-13T12:34:18;18.00;99.90
13205;DHT22;6667;52.634;9.226;2022-10-13T12:36:53;18.00;99.90
13205;DHT22;6667;52.634;9.226;2022-10-13T12:39:20;17.90;99.90
13205;DHT22;6667;52.634;9.226;2022-10-13T12:41:50;17.90;99.90
13205;DHT22;6667;52.634;9.226;2022-10-13T12:44:19;18.00;99.90
13205;DHT22;6667;52.634;9.226;2022-10-13T12:46:48;17.90;99.90
13205;DHT22;6667;52.634;9.226;2022-10-13T12:49:20;17.90;99.90
13205;DHT22;6667;52.634;9.226;2022-10-13T12:51:50;17.90;99.90
13205;DHT22;6667;52.634;9.226;2022-10-13T12:54:20;17.70;99.90
13205;DHT22;6667;52.634;9.226;2022-10-13T12:56:49;17.60;99.90
13205;DHT22;6667;52.634;9.226;2022-10-13T12:59:19;17.50;99.90
13205;DHT22;6667;52.634;9.226;2022-10-13T13:01:52;17.50;99.90
13205;DHT22;6667;52.634;9.226;2022-10-13T13:04:37;17.50;99.90
13205;DHT22;6667;52.634;9.226;2022-10-13T13:07:24;17.50;99.90
13205;DHT22;6667;52.634;9.226;2022-10-13T13:10:15;17.50;99.90
13205;DHT22;6667;52.634;9.226;2022-10-13T13:12:42;17.40;99.90
13205;DHT22;6667;52.634;9.226;2022-10-13T13:15:34;17.40;99.90
13205;DHT22;6667;52.634;9.226;2022-10-13T13:18:27;17.30;99.90
13205;DHT22;6667;52.634;9.226;2022-10-13T13:20:55;17.30;99.90
13205;DHT22;6667;52.634;9.226;2022-10-13T13:23:23;17.30;99.90
13205;DHT22;6667;52.634;9.226;2022-10-13T13:26:02;17.30;99.90
13205;DHT22;6667;52.634;9.226;2022-10-13T13:28:31;17.40;99.90
13205;DHT22;6667;52.634;9.226;2022-10-13T13:30:57;17.40;99.90
13205;DHT22;6667;52.634;9.226;2022-10-13T13:33:24;17.40;99.90
13205;DHT22;6667;52.634;9.226;2022-10-13T13:35:51;17.50;99.90
13205;DHT22;6667;52.634;9.226;2022-10-13T13:38:18;17.50;99.90
13205;DHT22;6667;52.634;9.226;2022-10-13T13:40:46;17.60;99.90
13205;DHT22;6667;52.634;9.226;2022-10-13T13:43:13;17.80;99.90
13205;DHT22;6667;52.634;9.226;2022-10-13T13:45:40;17.90;99.90
13205;DHT22;6667;52.634;9.226;2022-10-13T13:48:07;18.00;99.90
13205;DHT22;6667;52.634;9.226;2022-10-13T13:50:35;18.00;99.90
13205;DHT22;6667;52.634;9.226;2022-10-13T13:53:03;18.10;99.90
13205;DHT22;6667;52.634;9.226;2022-10-13T13:55:30;18.10;99.90
13205;DHT22;6667;52.634;9.226;2022-10-13T13:57:58;18.10;99.90
13205;DHT22;6667;52.634;9.226;2022-10-13T14:00:25;18.00;99.90
13205;DHT22;6667;52.634;9.226;2022-10-13T14:02:52;18.00;99.90
13205;DHT22;6667;52.634;9.226;2022-10-13T14:05:19;18.00;99.90
13205;DHT22;6667;52.634;9.226;2022-10-13T14:07:45;18.10;99.90
13205;DHT22;6667;52.634;9.226;2022-10-13T14:10:12;18.10;99.90
13205;DHT22;6667;52.634;9.226;2022-10-13T14:12:39;17.90;99.90
13205;DHT22;6667;52.634;9.226;2022-10-13T14:15:08;17.80;99.90
13205;DHT22;6667;52.634;9.226;2022-10-13T14:17:35;17.90;99.90
13205;DHT22;6667;52.634;9.226;2022-10-13T14:20:02;18.00;99.90
13205;DHT22;6667;52.634;9.226;2022-10-13T14:22:29;18.00;99.90
13205;DHT22;6667;52.634;9.226;2022-10-13T14:24:55;17.90;99.90
13205;DHT22;6667;52.634;9.226;2022-10-13T14:27:22;17.80;99.90
13205;DHT22;6667;52.634;9.226;2022-10-13T14:29:49;17.90;99.90
13205;DHT22;6667;52.634;9.226;2022-10-13T14:32:17;17.80;99.90
13205;DHT22;6667;52.634;9.226;2022-10-13T14:34:44;17.70;99.90
13205;DHT22;6667;52.634;9.226;2022-10-13T14:37:10;17.70;99.90
13205;DHT22;6667;52.634;9.226;2022-10-13T14:39:37;17.70;99.90
13205;DHT22;6667;52.634;9.226;2022-10-13T14:42:04;17.70;99.90
13205;DHT22;6667;52.634;9.226;2022-10-13T14:44:31;17.60;99.90
13205;DHT22;6667;52.634;9.226;2022-10-13T14:46:57;17.50;99.90
13205;DHT22;6667;52.634;9.226;2022-10-13T14:49:25;17.40;99.90
13205;DHT22;6667;52.634;9.226;2022-10-13T14:51:52;17.40;99.90
13205;DHT22;6667;52.634;9.226;2022-10-13T14:54:19;17.30;99.90
13205;DHT22;6667;52.634;9.226;2022-10-13T14:56:45;17.30;99.90
13205;DHT22;6667;52.634;9.226;2022-10-13T14:59:12;17.30;99.90
13205;DHT22;6667;52.634;9.226;2022-10-13T15:01:39;17.20;99.90
13205;DHT22;6667;52.634;9.226;2022-10-13T15:04:07;17.10;99.90
13205;DHT22;6667;52.634;9.226;2022-10-13T15:06:35;17.10;99.90
13205;DHT22;6667;52.634;9.226;2022-10-13T15:09:03;17.10;99.90
13205;DHT22;6667;52.634;9.226;2022-10-13T15:11:30;17.10;99.90
13205;DHT22;6667;52.634;9.226;2022-10-13T15:13:57;17.10;99.90
13205;DHT22;6667;52.634;9.226;2022-10-13T15:16:25;17.20;99.90
13205;DHT22;6667;52.634;9.226;2022-10-13T15:18:53;17.10;99.90
13205;DHT22;6667;52.634;9.226;2022-10-13T15:21:19;17.10;99.90
13205;DHT22;6667;52.634;9.226;2022-10-13T15:23:48;17.10;99.90
13205;DHT22;6667;52.634;9.226;2022-10-13T15:26:16;17.00;99.90
13205;DHT22;6667;52.634;9.226;2022-10-13T15:28:44;17.00;99.90
13205;DHT22;6667;52.634;9.226;2022-10-13T15:31:12;16.90;99.90
13205;DHT22;6667;52.634;9.226;2022-10-13T15:33:41;16.90;99.90
13205;DHT22;6667;52.634;9.226;2022-10-13T15:36:08;16.90;99.90
13205;DHT22;6667;52.634;9.226;2022-10-13T15:38:34;16.80;99.90
13205;DHT22;6667;52.634;9.226;2022-10-13T15:41:03;16.70;99.90
13205;DHT22;6667;52.634;9.226;2022-10-13T15:43:31;16.70;99.90
13205;DHT22;6667;52.634;9.226;2022-10-13T15:46:00;16.70;99.90
13205;DHT22;6667;52.634;9.226;2022-10-13T15:48:27;16.70;99.90
13205;DHT22;6667;52.634;9.226;2022-10-13T15:50:54;16.60;99.90
13205;DHT22;6667;52.634;9.226;2022-10-13T15:53:21;16.50;99.90
13205;DHT22;6667;52.634;9.226;2022-10-13T15:55:48;16.50;99.90
13205;DHT22;6667;52.634;9.226;2022-10-13T15:58:16;16.40;99.90
13205;DHT22;6667;52.634;9.226;2022-10-13T16:00:43;16.40;99.90
13205;DHT22;6667;52.634;9.226;2022-10-13T16:03:13;16.30;99.90
13205;DHT22;6667;52.634;9.226;2022-10-13T16:05:40;16.40;99.90
13205;DHT22;6667;52.634;9.226;2022-10-13T16:08:07;16.40;99.90
13205;DHT22;6667;52.634;9.226;2022-10-13T16:10:33;16.30;99.90
13205;DHT22;6667;52.634;9.226;2022-10-13T16:13:00;16.30;99.90
13205;DHT22;6667;52.634;9.226;2022-10-13T16:15:28;16.20;99.90
13205;DHT22;6667;52.634;9.226;2022-10-13T16:17:56;16.20;99.90
13205;DHT22;6667;52.634;9.226;2022-10-13T16:20:22;16.10;99.90
13205;DHT22;6667;52.634;9.226;2022-10-13T16:22:49;16.00;99.90
13205;DHT22;6667;52.634;9.226;2022-10-13T16:25:16;16.00;99.90
13205;DHT22;6667;52.634;9.226;2022-10-13T16:27:42;15.90;99.90
13205;DHT22;6667;52.634;9.226;2022-10-13T16:30:10;15.90;99.90
13205;DHT22;6667;52.634;9.226;2022-10-13T16:32:38;15.80;99.90
13205;DHT22;6667;52.634;9.226;2022-10-13T16:35:06;15.80;99.90
13205;DHT22;6667;52.634;9.226;2022-10-13T16:37:33;15.70;99.90
13205;DHT22;6667;52.634;9.226;2022-10-13T16:40:00;15.80;99.90
13205;DHT22;6667;52.634;9.226;2022-10-13T16:42:27;15.70;99.90
13205;DHT22;6667;52.634;9.226;2022-10-13T16:44:53;15.70;99.90
13205;DHT22;6667;52.634;9.226;2022-10-13T16:47:20;15.60;99.90
13205;DHT22;6667;52.634;9.226;2022-10-13T16:49:48;15.60;99.90
13205;DHT22;6667;52.634;9.226;2022-10-13T16:52:15;15.50;99.90
13205;DHT22;6667;52.634;9.226;2022-10-13T16:54:44;15.50;99.90
13205;DHT22;6667;52.634;9.226;2022-10-13T16:57:11;15.50;99.90
13205;DHT22;6667;52.634;9.226;2022-10-13T16:59:38;15.40;99.90
13205;DHT22;6667;52.634;9.226;2022-10-13T17:02:05;15.40;99.90
13205;DHT22;6667;52.634;9.226;2022-10-13T17:04:32;15.40;99.90
13205;DHT22;6667;52.634;9.226;2022-10-13T17:07:00;15.50;99.90
13205;DHT22;6667;52.634;9.226;2022-10-13T17:09:27;15.40;99.90
13205;DHT22;6667;52.634;9.226;2022-10-13T17:11:54;15.40;99.90
13205;DHT22;6667;52.634;9.226;2022-10-13T17:14:21;15.40;99.90
13205;DHT22;6667;52.634;9.226;2022-10-13T17:16:47;15.40;99.90
13205;DHT22;6667;52.634;9.226;2022-10-13T17:19:14;15.40;99.90
13205;DHT22;6667;52.634;9.226;2022-10-13T17:21:42;15.30;99.90
13205;DHT22;6667;52.634;9.226;2022-10-13T17:24:10;15.30;99.90
13205;DHT22;6667;52.634;9.226;2022-10-13T17:26:37;15.30;99.90
13205;DHT22;6667;52.634;9.226;2022-10-13T17:29:04;15.20;99.90
13205;DHT22;6667;52.634;9.226;2022-10-13T17:31:31;15.20;99.90
13205;DHT22;6667;52.634;9.226;2022-10-13T17:33:58;15.20;99.90
13205;DHT22;6667;52.634;9.226;2022-10-13T17:36:27;15.20;99.90
13205;DHT22;6667;52.634;9.226;2022-10-13T17:39:02;15.20;99.90
13205;DHT22;6667;52.634;9.226;2022-10-13T17:41:30;15.10;99.90
13205;DHT22;6667;52.634;9.226;2022-10-13T17:43:57;15.10;99.90
13205;DHT22;6667;52.634;9.226;2022-10-13T17:46:26;15.00;99.90
13205;DHT22;6667;52.634;9.226;2022-10-13T17:48:54;15.00;99.90
13205;DHT22;6667;52.634;9.226;2022-10-13T17:51:21;15.00;99.90
13205;DHT22;6667;52.634;9.226;2022-10-13T17:53:49;15.00;99.90
13205;DHT22;6667;52.634;9.226;2022-10-13T17:56:17;14.90;99.90
13205;DHT22;6667;52.634;9.226;2022-10-13T17:58:46;14.90;99.90
13205;DHT22;6667;52.634;9.226;2022-10-13T18:01:16;14.90;99.90
13205;DHT22;6667;52.634;9.226;2022-10-13T18:03:44;14.80;99.90
13205;DHT22;6667;52.634;9.226;2022-10-13T18:06:11;14.70;99.90
13205;DHT22;6667;52.634;9.226;2022-10-13T18:08:38;14.70;99.90
13205;DHT22;6667;52.634;9.226;2022-10-13T18:11:06;14.70;99.90
13205;DHT22;6667;52.634;9.226;2022-10-13T18:13:33;14.60;99.90
13205;DHT22;6667;52.634;9.226;2022-10-13T18:16:06;14.60;99.90
13205;DHT22;6667;52.634;9.226;2022-10-13T18:18:34;14.50;99.90
13205;DHT22;6667;52.634;9.226;2022-10-13T18:21:01;14.40;99.90
13205;DHT22;6667;52.634;9.226;2022-10-13T18:23:29;14.40;99.90
13205;DHT22;6667;52.634;9.226;2022-10-13T18:25:59;14.40;99.90
13205;DHT22;6667;52.634;9.226;2022-10-13T18:28:28;14.30;99.90
13205;DHT22;6667;52.634;9.226;2022-10-13T18:31:01;14.30;99.90
13205;DHT22;6667;52.634;9.226;2022-10-13T18:33:30;14.20;99.90
13205;DHT22;6667;52.634;9.226;2022-10-13T18:35:57;14.30;99.90
13205;DHT22;6667;52.634;9.226;2022-10-13T18:38:23;14.20;99.90
13205;DHT22;6667;52.634;9.226;2022-10-13T18:40:50;14.20;99.90
13205;DHT22;6667;52.634;9.226;2022-10-13T18:43:17;14.10;99.90
13205;DHT22;6667;52.634;9.226;2022-10-13T18:45:43;14.10;99.90
13205;DHT22;6667;52.634;9.226;2022-10-13T18:48:10;14.10;99.90
13205;DHT22;6667;52.634;9.226;2022-10-13T18:50:38;14.10;99.90
13205;DHT22;6667;52.634;9.226;2022-10-13T18:53:05;14.00;99.90
13205;DHT22;6667;52.634;9.226;2022-10-13T18:55:32;14.00;99.90
13205;DHT22;6667;52.634;9.226;2022-10-13T18:58:00;14.00;99.90
13205;DHT22;6667;52.634;9.226;2022-10-13T19:00:27;13.90;99.90
13205;DHT22;6667;52.634;9.226;2022-10-13T19:02:53;13.90;99.90
13205;DHT22;6667;52.634;9.226;2022-10-13T19:05:20;13.90;99.90
13205;DHT22;6667;52.634;9.226;2022-10-13T19:07:48;13.90;99.90
13205;DHT22;6667;52.634;9.226;2022-10-13T19:10:15;13.80;99.90
13205;DHT22;6667;52.634;9.226;2022-10-13T19:12:42;13.90;99.90
13205;DHT22;6667;52.634;9.226;2022-10-13T19:15:08;13.90;99.90
13205;DHT22;6667;52.634;9.226;2022-10-13T19:17:35;13.80;99.90
13205;DHT22;6667;52.634;9.226;2022-10-13T19:20:02;13.80;99.90
13205;DHT22;6667;52.634;9.226;2022-10-13T19:22:29;13.80;99.90
13205;DHT22;6667;52.634;9.226;2022-10-13T19:24:57;13.80;99.90
13205;DHT22;6667;52.634;9.226;2022-10-13T19:27:24;13.80;99.90
13205;DHT22;6667;52.634;9.226;2022-10-13T19:29:51;13.70;99.90
13205;DHT22;6667;52.634;9.226;2022-10-13T19:32:18;13.70;99.90
13205;DHT22;6667;52.634;9.226;2022-10-13T19:34:45;13.70;99.90
13205;DHT22;6667;52.634;9.226;2022-10-13T19:37:11;13.70;99.90
13205;DHT22;6667;52.634;9.226;2022-10-13T19:39:38;13.70;99.90
13205;DHT22;6667;52.634;9.226;2022-10-13T19:42:06;13.70;99.90
13205;DHT22;6667;52.634;9.226;2022-10-13T19:44:33;13.60;99.90
13205;DHT22;6667;52.634;9.226;2022-10-13T19:46:59;13.70;99.90
13205;DHT22;6667;52.634;9.226;2022-10-13T19:49:26;13.60;99.90
13205;DHT22;6667;52.634;9.226;2022-10-13T19:51:53;13.70;99.90
13205;DHT22;6667;52.634;9.226;2022-10-13T19:54:21;13.60;99.90
13205;DHT22;6667;52.634;9.226;2022-10-13T19:56:48;13.60;99.90
13205;DHT22;6667;52.634;9.226;2022-10-13T19:59:18;13.60;99.90
13205;DHT22;6667;52.634;9.226;2022-10-13T20:01:45;13.60;99.90
13205;DHT22;6667;52.634;9.226;2022-10-13T20:04:13;13.60;99.90
13205;DHT22;6667;52.634;9.226;2022-10-13T20:06:42;13.60;99.90
13205;DHT22;6667;52.634;9.226;2022-10-13T20:09:09;13.50;99.90
13205;DHT22;6667;52.634;9.226;2022-10-13T20:11:36;13.50;99.90
13205;DHT22;6667;52.634;9.226;2022-10-13T20:14:03;13.40;99.90
13205;DHT22;6667;52.634;9.226;2022-10-13T20:16:31;13.40;99.90
13205;DHT22;6667;52.634;9.226;2022-10-13T20:18:59;13.40;99.90
13205;DHT22;6667;52.634;9.226;2022-10-13T20:21:27;13.40;99.90
13205;DHT22;6667;52.634;9.226;2022-10-13T20:23:55;13.40;99.90
13205;DHT22;6667;52.634;9.226;2022-10-13T20:26:22;13.40;99.90